createdAt,value
2023-04-10T00:01:04.190Z,100.00
2023-04-10T00:03:35.985Z,100.00
2023-04-10T00:06:07.724Z,100.00
2023-04-10T00:08:38.279Z,100.00
2023-04-10T00:11:09.150Z,100.00
2023-04-10T00:13:40.302Z,100.00
2023-04-10T00:16:11.286Z,100.00
2023-04-10T00:18:44.595Z,100.00
2023-04-10T00:21:15.318Z,100.00
2023-04-10T00:23:47.445Z,100.00
2023-04-10T00:26:19.711Z,100.00
2023-04-10T00:28:50.300Z,100.00
2023-04-10T00:31:21.314Z,100.00
2023-04-10T00:33:52.597Z,100.00
2023-04-10T00:36:25.673Z,100.00
2023-04-10T00:38:56.162Z,100.00
2023-04-10T00:41:27.436Z,100.00
2023-04-10T00:43:58.659Z,100.00
2023-04-10T00:46:29.888Z,100.00
2023-04-10T00:49:03.890Z,100.00
2023-04-10T00:51:34.866Z,100.00
2023-04-10T00:54:06.607Z,100.00
2023-04-10T00:56:38.054Z,100.00
2023-04-10T00:59:08.538Z,100.00
2023-04-10T01:01:40.350Z,100.00
2023-04-10T01:04:11.940Z,100.00
2023-04-10T01:06:54.621Z,100.00
2023-04-10T01:09:34.129Z,100.00
2023-04-10T01:12:27.338Z,100.00
2023-04-10T01:15:21.434Z,100.00
2023-04-10T01:18:16.916Z,100.00
2023-04-10T01:20:47.714Z,100.00
2023-04-10T01:23:35.905Z,100.00
2023-04-10T01:26:09.380Z,100.00
2023-04-10T01:29:12.843Z,100.00
2023-04-10T01:31:46.233Z,100.00
2023-04-10T01:34:22.581Z,100.00
2023-04-10T01:36:55.835Z,100.00
2023-04-10T01:39:27.706Z,100.00
2023-04-10T01:42:00.190Z,100.00
2023-04-10T01:44:32.233Z,100.00
2023-04-10T01:47:06.594Z,100.00
2023-04-10T01:49:40.302Z,100.00
2023-04-10T01:52:14.331Z,100.00
2023-04-10T01:54:48.143Z,100.00
2023-04-10T01:57:20.088Z,100.00
2023-04-10T01:59:51.172Z,100.00
2023-04-10T02:02:21.682Z,100.00
2023-04-10T02:04:52.462Z,100.00
2023-04-10T02:07:32.094Z,100.00
2023-04-10T02:10:38.704Z,100.00
2023-04-10T02:13:12.178Z,100.00
2023-04-10T02:16:04.098Z,100.00
2023-04-10T02:18:38.877Z,100.00
2023-04-10T02:21:09.502Z,100.00
2023-04-10T02:23:40.577Z,100.00
2023-04-10T02:26:11.341Z,100.00
2023-04-10T02:28:42.255Z,100.00
2023-04-10T02:31:13.563Z,100.00
2023-04-10T02:33:44.750Z,100.00
2023-04-10T02:36:15.249Z,100.00
2023-04-10T02:38:46.360Z,100.00
2023-04-10T02:41:21.527Z,100.00
2023-04-10T02:43:52.073Z,100.00
2023-04-10T02:46:22.899Z,100.00
2023-04-10T02:48:53.589Z,100.00
2023-04-10T02:51:24.090Z,100.00
2023-04-10T02:53:55.255Z,100.00
2023-04-10T02:56:26.009Z,100.00
2023-04-10T02:58:56.223Z,100.00
2023-04-10T03:01:27.245Z,100.00
2023-04-10T03:03:58.136Z,100.00
2023-04-10T03:06:29.550Z,100.00
2023-04-10T03:09:00.335Z,100.00
2023-04-10T03:11:31.041Z,100.00
2023-04-10T03:14:02.055Z,100.00
2023-04-10T03:16:33.469Z,100.00
2023-04-10T03:19:04.468Z,100.00
2023-04-10T03:21:35.486Z,100.00
2023-04-10T03:24:06.032Z,100.00
2023-04-10T03:26:36.435Z,100.00
2023-04-10T03:29:07.128Z,100.00
2023-04-10T03:31:37.886Z,100.00
2023-04-10T03:34:08.684Z,100.00
2023-04-10T03:36:39.191Z,100.00
2023-04-10T03:39:10.129Z,100.00
2023-04-10T03:41:41.013Z,100.00
2023-04-10T03:44:11.492Z,100.00
2023-04-10T03:46:42.610Z,100.00
2023-04-10T03:49:13.013Z,100.00
2023-04-10T03:51:43.362Z,100.00
2023-04-10T03:54:14.332Z,100.00
2023-04-10T03:56:44.848Z,100.00
2023-04-10T03:59:17.312Z,100.00
2023-04-10T04:01:47.998Z,100.00
2023-04-10T04:04:20.039Z,100.00
2023-04-10T04:06:50.919Z,100.00
2023-04-10T04:09:21.354Z,100.00
2023-04-10T04:11:51.884Z,100.00
2023-04-10T04:14:23.084Z,100.00
2023-04-10T04:16:54.104Z,100.00
2023-04-10T04:19:25.264Z,100.00
2023-04-10T04:21:56.237Z,100.00
2023-04-10T04:24:26.888Z,100.00
2023-04-10T04:26:57.851Z,100.00
2023-04-10T04:29:28.622Z,100.00
2023-04-10T04:31:59.307Z,100.00
2023-04-10T04:34:30.392Z,100.00
2023-04-10T04:37:00.908Z,100.00
2023-04-10T04:39:31.350Z,100.00
2023-04-10T04:42:02.435Z,100.00
2023-04-10T04:44:37.677Z,100.00
2023-04-10T04:47:10.849Z,100.00
2023-04-10T04:49:43.328Z,100.00
2023-04-10T04:52:16.344Z,100.00
2023-04-10T04:54:49.671Z,100.00
2023-04-10T04:57:22.819Z,100.00
2023-04-10T04:59:55.758Z,100.00
2023-04-10T05:02:29.351Z,100.00
2023-04-10T05:05:02.470Z,100.00
2023-04-10T05:07:34.254Z,100.00
2023-04-10T05:10:05.093Z,100.00
2023-04-10T05:12:36.438Z,100.00
2023-04-10T05:15:08.891Z,100.00
2023-04-10T05:17:40.266Z,100.00
2023-04-10T05:20:11.272Z,100.00
2023-04-10T05:22:42.083Z,100.00
2023-04-10T05:25:13.352Z,100.00
2023-04-10T05:27:45.718Z,100.00
2023-04-10T05:30:16.661Z,100.00
2023-04-10T05:32:48.501Z,100.00
2023-04-10T05:35:18.919Z,100.00
2023-04-10T05:37:52.197Z,100.00
2023-04-10T05:40:23.598Z,100.00
2023-04-10T05:42:54.706Z,100.00
2023-04-10T05:45:25.797Z,100.00
2023-04-10T05:47:57.608Z,100.00
2023-04-10T05:50:30.384Z,100.00
2023-04-10T05:53:02.274Z,100.00
2023-04-10T05:55:36.134Z,100.00
2023-04-10T05:58:10.324Z,100.00
2023-04-10T06:00:41.098Z,100.00
2023-04-10T06:03:17.161Z,100.00
2023-04-10T06:05:49.895Z,100.00
2023-04-10T06:08:20.608Z,100.00
2023-04-10T06:10:55.573Z,100.00
2023-04-10T06:13:27.581Z,100.00
2023-04-10T06:16:01.589Z,100.00
2023-04-10T06:18:33.621Z,100.00
2023-04-10T06:21:07.302Z,100.00
2023-04-10T06:23:38.572Z,100.00
2023-04-10T06:26:09.893Z,100.00
2023-04-10T06:28:43.004Z,100.00
2023-04-10T06:31:15.272Z,100.00
2023-04-10T06:33:57.202Z,100.00
2023-04-10T06:36:28.544Z,100.00
2023-04-10T06:39:03.508Z,100.00
2023-04-10T06:41:34.660Z,100.00
2023-04-10T06:44:09.988Z,100.00
2023-04-10T06:46:40.990Z,100.00
2023-04-10T06:49:15.141Z,100.00
2023-04-10T06:51:47.737Z,100.00
2023-04-10T06:54:18.114Z,100.00
2023-04-10T06:56:48.695Z,100.00
2023-04-10T06:59:24.133Z,100.00
2023-04-10T07:01:54.176Z,100.00
2023-04-10T07:04:27.655Z,100.00
2023-04-10T07:07:00.304Z,100.00
2023-04-10T07:09:33.048Z,100.00
2023-04-10T07:12:05.447Z,100.00
2023-04-10T07:14:40.719Z,100.00
2023-04-10T07:17:13.332Z,100.00
2023-04-10T07:19:46.571Z,100.00
2023-04-10T07:22:20.323Z,98.80
2023-04-10T07:24:51.052Z,98.33
2023-04-10T07:27:28.574Z,98.90
2023-04-10T07:30:02.515Z,97.04
2023-04-10T07:32:35.372Z,97.04
2023-04-10T07:35:09.854Z,96.38
2023-04-10T07:37:39.613Z,96.33
2023-04-10T07:40:10.780Z,96.33
2023-04-10T07:42:43.930Z,95.49
2023-04-10T07:45:16.094Z,95.49
2023-04-10T07:47:47.296Z,94.30
2023-04-10T07:50:18.690Z,94.30
2023-04-10T07:52:51.002Z,93.83
2023-04-10T07:55:23.467Z,95.00
2023-04-10T07:57:54.805Z,95.00
2023-04-10T08:00:27.664Z,92.90
2023-04-10T08:03:00.435Z,90.49
2023-04-10T08:05:32.367Z,89.93
2023-04-10T08:08:06.169Z,89.20
2023-04-10T08:10:38.401Z,85.48
2023-04-10T08:13:09.867Z,84.60
2023-04-10T08:15:40.481Z,81.15
2023-04-10T08:18:11.943Z,79.09
2023-04-10T08:20:43.204Z,79.09
2023-04-10T08:23:20.294Z,75.86
2023-04-10T08:25:49.025Z,76.50
2023-04-10T08:28:26.810Z,75.75
2023-04-10T08:31:33.447Z,75.75
2023-04-10T08:33:54.922Z,72.60
2023-04-10T08:39:02.781Z,74.45
2023-04-10T08:41:37.370Z,74.45
2023-04-10T08:44:08.634Z,71.48
2023-04-10T08:46:42.926Z,70.74
2023-04-10T08:49:19.418Z,72.13
2023-04-10T08:51:58.999Z,72.13
2023-04-10T08:54:35.935Z,70.24
2023-04-10T08:57:13.923Z,69.88
2023-04-10T08:59:45.015Z,65.75
2023-04-10T09:02:28.728Z,64.43
2023-04-10T09:05:02.552Z,63.92
2023-04-10T09:07:33.393Z,67.73
2023-04-10T09:10:04.802Z,64.85
2023-04-10T09:12:49.118Z,64.85
2023-04-10T09:15:24.689Z,64.85
2023-04-10T09:18:02.457Z,65.54
2023-04-10T09:20:35.483Z,66.57
2023-04-10T09:24:24.322Z,68.67
2023-04-10T09:26:35.155Z,64.11
2023-04-10T09:29:10.069Z,65.23
2023-04-10T09:31:49.294Z,65.23
2023-04-10T09:34:20.581Z,66.71
2023-04-10T09:36:58.611Z,66.38
2023-04-10T09:39:40.185Z,67.72
2023-04-10T09:42:11.576Z,67.33
2023-04-10T09:44:43.087Z,65.71
2023-04-10T09:47:21.717Z,64.92
2023-04-10T09:49:57.153Z,63.53
2023-04-10T09:52:30.548Z,64.21
2023-04-10T09:55:03.480Z,64.21
2023-04-10T09:57:37.708Z,65.29
2023-04-10T10:00:13.993Z,67.31
2023-04-10T10:02:45.869Z,61.91
2023-04-10T10:05:17.487Z,62.42
2023-04-10T10:07:52.487Z,61.41
2023-04-10T10:10:25.026Z,61.41
2023-04-10T10:12:59.747Z,64.04
2023-04-10T10:15:48.306Z,67.23
2023-04-10T10:18:34.400Z,65.67
2023-04-10T10:21:05.941Z,65.67
2023-04-10T10:23:37.843Z,64.32
2023-04-10T10:26:10.087Z,64.22
2023-04-10T10:28:43.363Z,64.52
2023-04-10T10:31:15.140Z,65.39
2023-04-10T10:33:46.879Z,65.39
2023-04-10T10:36:19.413Z,66.03
2023-04-10T10:39:09.133Z,61.81
2023-04-10T10:41:43.490Z,63.29
2023-04-10T10:44:23.193Z,63.29
2023-04-10T10:47:11.899Z,63.43
2023-04-10T10:49:57.509Z,63.45
2023-04-10T10:52:46.202Z,62.83
2023-04-10T10:55:25.796Z,62.83
2023-04-10T10:58:17.250Z,59.91
2023-04-10T11:01:14.266Z,59.15
2023-04-10T11:03:45.522Z,59.10
2023-04-10T11:06:21.061Z,57.28
2023-04-10T11:08:54.003Z,57.28
2023-04-10T11:11:28.320Z,57.78
2023-04-10T11:14:07.437Z,57.87
2023-04-10T11:16:41.425Z,56.51
2023-04-10T11:19:17.812Z,56.51
2023-04-10T11:21:59.032Z,59.00
2023-04-10T11:24:48.187Z,59.00
2023-04-10T11:27:38.928Z,55.76
2023-04-10T11:30:27.130Z,55.76
2023-04-10T11:32:58.765Z,54.72
2023-04-10T11:35:30.316Z,55.87
2023-04-10T11:38:11.728Z,55.07
2023-04-10T11:41:03.115Z,53.55
2023-04-10T11:43:35.385Z,52.55
2023-04-10T11:46:07.988Z,51.45
2023-04-10T11:48:39.111Z,50.16
2023-04-10T11:51:15.295Z,50.16
2023-04-10T11:53:48.638Z,48.71
2023-04-10T11:56:25.305Z,48.71
2023-04-10T11:58:57.936Z,48.34
2023-04-10T12:01:30.281Z,51.23
2023-04-10T12:04:06.957Z,51.23
2023-04-10T12:06:38.738Z,45.05
2023-04-10T12:09:37.039Z,46.08
2023-04-10T12:12:10.474Z,46.48
2023-04-10T12:14:43.047Z,50.23
2023-04-10T12:17:14.809Z,47.27
2023-04-10T12:19:47.421Z,46.94
2023-04-10T12:22:19.639Z,46.94
2023-04-10T12:24:53.539Z,49.20
2023-04-10T12:27:28.204Z,49.20
2023-04-10T12:29:59.391Z,52.66
2023-04-10T12:32:30.020Z,52.12
2023-04-10T12:35:01.310Z,54.25
2023-04-10T12:37:52.102Z,53.97
2023-04-10T12:40:24.754Z,53.97
2023-04-10T12:42:57.642Z,57.68
2023-04-10T12:45:42.761Z,56.32
2023-04-10T12:48:14.902Z,56.32
2023-04-10T12:50:49.519Z,55.22
2023-04-10T12:53:26.236Z,57.13
2023-04-10T12:56:07.791Z,55.30
2023-04-10T12:58:39.695Z,56.86
2023-04-10T13:01:13.836Z,55.57
2023-04-10T13:03:44.983Z,55.57
2023-04-10T13:06:17.693Z,56.36
2023-04-10T13:08:51.153Z,56.36
2023-04-10T13:11:22.285Z,56.85
2023-04-10T13:14:04.033Z,56.85
2023-04-10T13:16:35.337Z,57.39
2023-04-10T13:19:11.778Z,57.14
2023-04-10T13:21:43.814Z,52.02
2023-04-10T13:24:16.729Z,53.64
2023-04-10T13:26:47.325Z,55.28
2023-04-10T13:29:18.005Z,55.42
2023-04-10T13:31:48.561Z,55.45
2023-04-10T13:34:23.338Z,52.64
2023-04-10T13:36:54.271Z,53.11
2023-04-10T13:39:26.357Z,53.34
2023-04-10T13:41:58.895Z,53.34
2023-04-10T13:44:29.483Z,52.14
2023-04-10T13:47:00.654Z,52.00
2023-04-10T13:49:37.542Z,51.29
2023-04-10T13:52:11.593Z,53.29
2023-04-10T13:54:43.493Z,53.29
2023-04-10T13:57:17.132Z,53.15
2023-04-10T13:59:47.908Z,51.78
2023-04-10T14:02:18.449Z,55.41
2023-04-10T14:04:50.201Z,55.41
2023-04-10T14:07:21.727Z,54.21
2023-04-10T14:09:52.741Z,54.47
2023-04-10T14:12:23.817Z,53.33
2023-04-10T14:14:54.924Z,55.43
2023-04-10T14:17:25.501Z,55.43
2023-04-10T14:19:56.083Z,56.16
2023-04-10T14:22:26.563Z,56.16
2023-04-10T14:25:09.378Z,56.31
2023-04-10T14:27:29.470Z,54.85
2023-04-10T14:30:01.153Z,55.53
2023-04-10T14:32:32.179Z,55.53
2023-04-10T14:35:03.401Z,55.53
2023-04-10T14:37:37.818Z,56.31
2023-04-10T14:40:13.607Z,56.31
2023-04-10T14:42:42.256Z,55.05
2023-04-10T14:45:15.012Z,55.81
2023-04-10T14:47:45.636Z,55.45
2023-04-10T14:50:16.937Z,54.85
2023-04-10T14:52:50.936Z,56.69
2023-04-10T14:55:28.835Z,56.51
2023-04-10T14:58:00.156Z,56.51
2023-04-10T15:00:44.891Z,56.45
2023-04-10T15:03:18.981Z,55.75
2023-04-10T15:05:55.210Z,55.75
2023-04-10T15:08:34.858Z,57.23
2023-04-10T15:11:41.682Z,57.23
2023-04-10T15:14:15.128Z,58.51
2023-04-10T15:16:54.251Z,58.51
2023-04-10T15:19:27.870Z,59.41
2023-04-10T15:22:08.351Z,58.14
2023-04-10T15:24:49.798Z,57.24
2023-04-10T15:27:19.436Z,59.96
2023-04-10T15:30:05.399Z,59.96
2023-04-10T15:32:45.783Z,59.16
2023-04-10T15:35:15.457Z,59.12
2023-04-10T15:37:54.916Z,59.71
2023-04-10T15:40:30.557Z,59.33
2023-04-10T15:43:02.129Z,60.82
2023-04-10T15:45:35.844Z,61.60
2023-04-10T15:48:07.407Z,61.60
2023-04-10T15:50:39.337Z,62.26
2023-04-10T15:53:13.366Z,61.50
2023-04-10T15:55:44.434Z,61.34
2023-04-10T15:58:16.415Z,62.65
2023-04-10T16:01:03.482Z,64.42
2023-04-10T16:10:34.212Z,65.46
2023-04-10T16:13:05.805Z,65.46
2023-04-10T16:15:38.832Z,66.51
2023-04-10T16:18:10.758Z,65.44
2023-04-10T16:23:37.975Z,62.07
2023-04-10T16:26:15.626Z,62.09
2023-04-10T16:28:43.282Z,62.09
2023-04-10T16:31:13.865Z,63.21
2023-04-10T16:33:46.030Z,62.49
2023-04-10T16:36:17.768Z,64.22
2023-04-10T16:38:51.270Z,64.22
2023-04-10T16:41:25.278Z,62.06
2023-04-10T16:43:58.838Z,60.64
2023-04-10T16:46:30.674Z,61.75
2023-04-10T16:49:02.678Z,61.75
2023-04-10T16:51:36.241Z,62.11
2023-04-10T16:54:07.563Z,62.76
2023-04-10T16:56:40.292Z,62.09
2023-04-10T16:59:27.625Z,61.58
2023-04-10T17:01:58.533Z,60.64
2023-04-10T17:04:29.765Z,61.03
2023-04-10T17:07:02.502Z,61.03
2023-04-10T17:09:33.386Z,62.09
2023-04-10T17:12:07.086Z,62.09
2023-04-10T17:14:42.124Z,60.65
2023-04-10T17:17:12.858Z,60.09
2023-04-10T17:19:45.099Z,60.09
2023-04-10T17:22:16.126Z,59.41
2023-04-10T17:24:46.850Z,60.43
2023-04-10T17:27:18.054Z,61.62
2023-04-10T17:29:49.115Z,60.52
2023-04-10T17:32:20.714Z,62.56
2023-04-10T17:34:52.068Z,62.56
2023-04-10T17:37:23.861Z,61.44
2023-04-10T17:39:57.181Z,61.44
2023-04-10T17:42:31.420Z,62.49
2023-04-10T17:45:02.211Z,62.49
2023-04-10T17:47:33.985Z,60.17
2023-04-10T17:50:08.368Z,61.10
2023-04-10T17:52:39.509Z,61.10
2023-04-10T17:55:10.474Z,61.77
2023-04-10T17:57:41.632Z,61.11
2023-04-10T18:00:29.140Z,61.11
2023-04-10T18:03:03.755Z,60.73
2023-04-10T18:05:34.982Z,60.73
2023-04-10T18:08:06.315Z,61.70
2023-04-10T18:10:40.473Z,60.89
2023-04-10T18:13:13.200Z,60.78
2023-04-10T18:15:44.650Z,61.50
2023-04-10T18:18:25.144Z,61.26
2023-04-10T18:28:04.349Z,60.92
2023-04-10T18:30:29.878Z,62.86
2023-04-10T18:33:05.210Z,62.74
2023-04-10T18:35:41.813Z,61.73
2023-04-10T18:38:22.502Z,62.07
2023-04-10T18:44:04.989Z,60.54
2023-04-10T18:46:35.462Z,59.77
2023-04-10T18:49:18.634Z,59.77
2023-04-10T18:51:50.920Z,59.08
2023-04-10T18:54:23.252Z,59.72
2023-04-10T18:57:04.585Z,60.05
2023-04-10T18:59:39.818Z,61.10
2023-04-10T19:02:22.275Z,59.87
2023-04-10T19:05:13.658Z,59.82
2023-04-10T19:26:50.818Z,62.50
2023-04-10T19:29:27.629Z,61.94
2023-04-10T19:38:26.747Z,63.69
2023-04-10T19:41:01.066Z,61.81
2023-04-10T19:44:12.239Z,62.99
2023-04-10T19:50:05.777Z,62.81
2023-04-10T20:09:38.179Z,62.71
2023-04-10T20:26:18.919Z,62.23
2023-04-10T20:32:14.248Z,61.34
2023-04-10T20:38:38.781Z,60.43
2023-04-10T20:41:09.340Z,59.76
2023-04-10T20:43:42.739Z,59.76
2023-04-10T20:46:13.462Z,61.06
2023-04-10T20:48:44.577Z,61.83
2023-04-10T20:51:16.320Z,59.82
2023-04-10T20:53:46.785Z,61.50
2023-04-10T20:56:17.306Z,60.17
2023-04-10T20:58:48.123Z,60.17
2023-04-10T21:01:19.130Z,59.25
2023-04-10T21:03:52.023Z,60.03
2023-04-10T21:06:23.011Z,60.50
2023-04-10T21:08:54.366Z,58.36
2023-04-10T21:11:28.276Z,58.04
2023-04-10T21:13:58.983Z,57.25
2023-04-10T21:16:30.561Z,58.47
2023-04-10T21:19:01.375Z,56.34
2023-04-10T21:21:32.315Z,57.01
2023-04-10T21:24:02.956Z,56.50
2023-04-10T21:26:36.207Z,58.13
2023-04-10T21:29:06.810Z,57.12
2023-04-10T21:31:37.833Z,59.33
2023-04-10T21:34:09.330Z,58.64
2023-04-10T21:36:40.802Z,58.84
2023-04-10T21:39:11.590Z,58.73
2023-04-10T21:41:42.244Z,59.58
2023-04-10T21:44:16.883Z,61.27
2023-04-10T21:46:48.129Z,61.99
2023-04-10T21:49:19.060Z,61.77
2023-04-10T21:51:49.566Z,62.34
2023-04-10T21:54:21.758Z,62.34
2023-04-10T21:56:52.904Z,61.92
2023-04-10T21:59:25.213Z,63.72
2023-04-10T22:01:56.873Z,63.79
2023-04-10T22:04:28.235Z,64.12
2023-04-10T22:06:58.817Z,62.42
2023-04-10T22:09:29.688Z,65.54
2023-04-10T22:12:00.226Z,65.04
2023-04-10T22:14:33.183Z,64.87
2023-04-10T22:17:07.512Z,65.17
2023-04-10T22:19:38.424Z,63.50
2023-04-10T22:22:15.813Z,63.33
2023-04-10T22:24:47.530Z,63.53
2023-04-10T22:27:18.714Z,64.30
2023-04-10T22:30:02.085Z,64.25
2023-04-10T22:32:23.586Z,63.17
2023-04-10T22:34:54.663Z,63.86
2023-04-10T22:37:25.427Z,64.30
2023-04-10T22:39:56.294Z,64.25
2023-04-10T22:42:29.283Z,63.93
2023-04-10T22:44:59.902Z,61.53
2023-04-10T22:47:30.875Z,62.20
2023-04-10T22:50:01.489Z,60.67
2023-04-10T22:52:32.414Z,61.03
2023-04-10T22:55:03.032Z,61.18
2023-04-10T22:57:33.820Z,61.13
2023-04-10T23:00:04.591Z,59.58
2023-04-10T23:02:36.830Z,60.78
2023-04-10T23:05:07.771Z,61.58
2023-04-10T23:07:38.963Z,60.34
2023-04-10T23:10:09.828Z,61.89
2023-04-10T23:12:40.980Z,62.91
2023-04-10T23:15:11.849Z,61.85
2023-04-10T23:17:42.475Z,61.85
2023-04-10T23:20:13.510Z,63.20
2023-04-10T23:22:44.985Z,63.48
2023-04-10T23:25:15.953Z,63.08
2023-04-10T23:27:47.574Z,63.02
2023-04-10T23:30:18.624Z,61.99
2023-04-10T23:32:50.350Z,63.10
2023-04-10T23:35:21.567Z,63.10
2023-04-10T23:37:52.934Z,64.78
2023-04-10T23:40:23.609Z,64.37
2023-04-10T23:42:54.889Z,63.52
2023-04-10T23:45:25.479Z,64.87
2023-04-10T23:47:56.934Z,65.41
2023-04-10T23:50:28.967Z,65.41
2023-04-10T23:53:02.225Z,66.52
2023-04-10T23:55:33.366Z,65.21
2023-04-10T23:58:05.107Z,67.65
